createdAt,value
2019-04-28T00:03:22.879Z,100693.16
2019-04-28T00:05:51.819Z,100696.53
2019-04-28T00:08:20.942Z,100698.21
2019-04-28T00:10:53.147Z,100695.08
2019-04-28T00:13:21.169Z,100701.92
2019-04-28T00:15:51.493Z,100701.86
2019-04-28T00:18:21.965Z,100707.06
2019-04-28T00:21:06.077Z,100707.06
2019-04-28T00:23:51.370Z,100705.74
2019-04-28T00:26:36.688Z,100702.16
2019-04-28T00:29:05.296Z,100701.27
2019-04-28T00:31:33.911Z,100702.69
2019-04-28T00:34:02.476Z,100696.16
2019-04-28T00:36:33.656Z,100696.16
2019-04-28T00:39:05.197Z,100692.74
2019-04-28T00:41:34.314Z,100693.46
2019-04-28T00:44:06.433Z,100700.84
2019-04-28T00:46:37.085Z,100700.02
2019-04-28T00:49:06.036Z,100703.66
2019-04-28T00:51:37.561Z,100703.36
2019-04-28T00:54:06.470Z,100708.88
2019-04-28T00:56:35.047Z,100706.19
2019-04-28T00:59:07.017Z,100705.20
2019-04-28T01:01:47.734Z,100710.14
2019-04-28T01:04:17.850Z,100707.51
2019-04-28T01:06:48.153Z,100713.53
2019-04-28T01:09:16.743Z,100712.34
2019-04-28T01:11:51.451Z,100720.38
2019-04-28T01:14:21.451Z,100720.38
2019-04-28T01:16:59.838Z,100716.23
2019-04-28T01:19:32.130Z,100720.44
2019-04-28T01:22:15.475Z,100712.72
2019-04-28T01:24:47.052Z,100719.89
2019-04-28T01:27:50.520Z,100716.35
2019-04-28T01:30:40.177Z,100728.45
2019-04-28T01:33:15.737Z,100726.31
2019-04-28T01:35:46.687Z,100726.17
2019-04-28T01:38:15.409Z,100728.09
2019-04-28T01:40:44.350Z,100728.09
2019-04-28T01:43:14.837Z,100728.50
2019-04-28T01:45:43.794Z,100731.63
2019-04-28T01:48:12.622Z,100735.09
2019-04-28T01:50:41.180Z,100734.27
2019-04-28T01:53:10.089Z,100735.20
2019-04-28T01:55:39.563Z,100739.95
2019-04-28T01:58:09.617Z,100743.48
2019-04-28T02:00:40.520Z,100745.78
2019-04-28T02:03:10.393Z,100752.06
2019-04-28T02:05:40.538Z,100748.64
2019-04-28T02:08:10.186Z,100746.95
2019-04-28T02:10:41.019Z,100742.09
2019-04-28T02:13:11.389Z,100741.91
2019-04-28T02:15:43.507Z,100737.59
2019-04-28T02:18:15.511Z,100735.99
2019-04-28T02:20:45.937Z,100745.27
2019-04-28T02:23:20.234Z,100738.32
2019-04-28T02:25:49.771Z,100748.14
2019-04-28T02:28:20.804Z,100743.80
2019-04-28T02:30:53.949Z,100754.78
2019-04-28T02:33:24.361Z,100746.02
2019-04-28T02:35:53.281Z,100747.88
2019-04-28T02:38:27.764Z,100759.67
2019-04-28T02:40:56.510Z,100759.79
2019-04-28T02:43:30.646Z,100759.56
2019-04-28T02:46:00.661Z,100761.37
2019-04-28T02:48:32.563Z,100757.88
2019-04-28T02:51:24.086Z,100756.88
2019-04-28T02:53:53.226Z,100759.36
2019-04-28T02:56:22.181Z,100764.98
2019-04-28T02:58:51.142Z,100760.67
2019-04-28T03:01:26.145Z,100771.38
2019-04-28T03:03:53.425Z,100765.38
2019-04-28T03:06:23.697Z,100763.10
2019-04-28T03:08:52.303Z,100765.69
2019-04-28T03:11:21.186Z,100772.80
2019-04-28T03:13:51.100Z,100763.00
2019-04-28T03:16:22.893Z,100771.55
2019-04-28T03:18:51.498Z,100767.11
2019-04-28T03:21:21.429Z,100773.64
2019-04-28T03:23:51.649Z,100766.95
2019-04-28T03:26:31.118Z,100771.06
2019-04-28T03:29:32.353Z,100774.96
2019-04-28T03:32:30.600Z,100777.86
2019-04-28T03:34:46.519Z,100779.66
2019-04-28T03:37:17.972Z,100779.70
2019-04-28T03:39:50.414Z,100777.44
2019-04-28T03:42:21.857Z,100783.23
2019-04-28T03:44:51.662Z,100777.97
2019-04-28T03:47:21.342Z,100788.83
2019-04-28T03:49:51.517Z,100792.61
2019-04-28T03:52:21.089Z,100789.02
2019-04-28T03:54:51.083Z,100792.66
2019-04-28T03:57:22.147Z,100798.67
2019-04-28T03:59:51.592Z,100800.56
2019-04-28T04:02:23.518Z,100797.36
2019-04-28T04:04:53.923Z,100797.47
2019-04-28T04:07:22.512Z,100792.56
2019-04-28T04:10:01.968Z,100795.05
2019-04-28T04:12:45.054Z,100800.20
2019-04-28T04:15:43.207Z,100800.52
2019-04-28T04:18:16.314Z,100801.42
2019-04-28T04:20:44.908Z,100806.22
2019-04-28T04:23:16.047Z,100805.05
2019-04-28T04:25:46.196Z,100804.69
2019-04-28T04:28:14.831Z,100806.42
2019-04-28T04:30:43.601Z,100808.54
2019-04-28T04:33:12.747Z,100805.95
2019-04-28T04:35:43.727Z,100808.11
2019-04-28T04:38:14.330Z,100808.06
2019-04-28T04:40:42.909Z,100820.59
2019-04-28T04:43:11.680Z,100815.23
2019-04-28T04:45:40.693Z,100816.86
2019-04-28T04:48:13.065Z,100817.22
2019-04-28T04:50:43.096Z,100821.03
2019-04-28T04:53:12.293Z,100825.09
2019-04-28T04:55:43.015Z,100832.30
2019-04-28T04:58:11.771Z,100831.89
2019-04-28T05:00:53.087Z,100836.63
2019-04-28T05:03:25.440Z,100834.48
2019-04-28T05:05:54.342Z,100836.63
2019-04-28T05:08:23.564Z,100843.56
2019-04-28T05:10:53.506Z,100846.69
2019-04-28T05:13:22.457Z,100851.11
2019-04-28T05:15:52.655Z,100851.47
2019-04-28T05:18:22.001Z,100856.12
2019-04-28T05:20:52.657Z,100856.44
2019-04-28T05:23:36.689Z,100860.76
2019-04-28T05:26:08.173Z,100856.31
2019-04-28T05:28:37.004Z,100859.11
2019-04-28T05:31:13.542Z,100856.26
2019-04-28T05:33:42.065Z,100856.23
2019-04-28T05:36:12.770Z,100867.44
2019-04-28T05:38:42.192Z,100872.92
2019-04-28T05:41:12.210Z,100866.11
2019-04-28T05:43:40.987Z,100868.16
2019-04-28T05:46:10.663Z,100872.42
2019-04-28T05:48:59.966Z,100875.37
2019-04-28T05:51:33.155Z,100877.05
2019-04-28T05:54:13.183Z,100880.77
2019-04-28T05:56:49.534Z,100888.18
2019-04-28T05:59:41.682Z,100885.81
2019-04-28T06:02:21.257Z,100889.89
2019-04-28T06:04:49.487Z,100894.45
2019-04-28T06:07:25.323Z,100895.16
2019-04-28T06:09:55.922Z,100890.61
2019-04-28T06:12:26.837Z,100892.59
2019-04-28T06:14:55.422Z,100900.09
2019-04-28T06:17:27.226Z,100897.33
2019-04-28T06:19:57.338Z,100903.05
2019-04-28T06:22:27.640Z,100903.05
2019-04-28T06:24:56.273Z,100902.03
2019-04-28T06:27:26.344Z,100908.92
2019-04-28T06:29:54.953Z,100911.38
2019-04-28T06:32:24.028Z,100906.42
2019-04-28T06:34:52.958Z,100898.77
2019-04-28T06:37:21.525Z,100911.09
2019-04-28T06:39:52.377Z,100907.30
2019-04-28T06:42:20.925Z,100904.89
2019-04-28T06:44:49.852Z,100910.88
2019-04-28T06:47:22.416Z,100905.41
2019-04-28T06:49:51.001Z,100910.63
2019-04-28T06:52:21.685Z,100904.75
2019-04-28T06:54:51.641Z,100908.20
2019-04-28T06:57:20.383Z,100902.75
2019-04-28T06:59:49.319Z,100904.66
2019-04-28T07:02:17.866Z,100913.69
2019-04-28T07:04:46.843Z,100912.36
2019-04-28T07:07:16.993Z,100916.13
2019-04-28T07:09:45.956Z,100910.97
2019-04-28T07:12:18.836Z,100923.09
2019-04-28T07:14:48.986Z,100910.97
2019-04-28T07:17:21.099Z,100921.33
2019-04-28T07:19:57.342Z,100915.94
2019-04-28T07:22:27.831Z,100922.38
2019-04-28T07:24:56.563Z,100921.45
2019-04-28T07:27:25.154Z,100919.33
2019-04-28T07:29:55.386Z,100921.50
2019-04-28T07:32:27.576Z,100918.55
2019-04-28T07:34:58.196Z,100924.53
2019-04-28T07:37:27.109Z,100923.09
2019-04-28T07:39:56.837Z,100928.84
2019-04-28T07:42:31.923Z,100933.62
2019-04-28T07:45:00.487Z,100934.01
2019-04-28T07:47:29.425Z,100935.60
2019-04-28T07:50:03.850Z,100933.39
2019-04-28T07:52:53.417Z,100936.58
2019-04-28T07:55:26.000Z,100935.45
2019-04-28T07:58:05.178Z,100936.92
2019-04-28T08:00:33.785Z,100932.36
2019-04-28T08:03:02.379Z,100939.10
2019-04-28T08:05:31.170Z,100942.03
2019-04-28T08:08:01.115Z,100942.62
2019-04-28T08:10:29.863Z,100942.07
2019-04-28T08:12:58.793Z,100937.66
2019-04-28T08:15:30.202Z,100939.30
2019-04-28T08:17:58.801Z,100935.59
2019-04-28T08:20:27.616Z,100944.12
2019-04-28T08:22:56.183Z,100953.89
2019-04-28T08:25:27.204Z,100949.89
2019-04-28T08:27:56.117Z,100953.56
2019-04-28T08:30:24.974Z,100951.23
2019-04-28T08:33:01.440Z,100955.81
2019-04-28T08:35:30.220Z,100953.88
2019-04-28T08:37:59.103Z,100956.34
2019-04-28T08:40:28.323Z,100955.82
2019-04-28T08:42:57.272Z,100959.37
2019-04-28T08:45:25.994Z,100958.33
2019-04-28T08:47:54.987Z,100962.80
2019-04-28T08:50:25.100Z,100968.66
2019-04-28T08:52:55.374Z,100966.95
2019-04-28T08:55:23.937Z,100970.67
2019-04-28T08:57:52.852Z,100972.27
2019-04-28T09:00:21.437Z,100981.67
2019-04-28T09:02:50.916Z,100982.55
2019-04-28T09:05:21.372Z,100979.30
2019-04-28T09:07:50.441Z,100991.98
2019-04-28T09:10:20.486Z,101003.25
2019-04-28T09:12:52.882Z,101004.87
2019-04-28T09:15:21.651Z,101007.58
2019-04-28T09:17:50.235Z,101007.87
2019-04-28T09:20:21.281Z,101011.24
2019-04-28T09:22:49.874Z,101017.05
2019-04-28T09:25:18.443Z,101016.50
2019-04-28T09:27:47.336Z,101016.98
2019-04-28T09:30:15.931Z,101022.91
2019-04-28T09:32:44.918Z,101028.08
2019-04-28T09:35:14.091Z,101018.83
2019-04-28T09:37:42.782Z,101023.38
2019-04-28T09:40:16.344Z,101034.08
2019-04-28T09:42:57.377Z,101024.13
2019-04-28T09:45:33.662Z,101032.41
2019-04-28T09:48:02.424Z,101033.55
2019-04-28T09:50:31.151Z,101027.70
2019-04-28T09:53:03.601Z,101030.23
2019-04-28T09:55:32.597Z,101026.22
2019-04-28T09:58:04.256Z,101024.09
2019-04-28T10:00:33.565Z,101021.21
2019-04-28T10:03:02.158Z,101029.09
2019-04-28T10:05:30.749Z,101028.88
2019-04-28T10:07:59.334Z,101036.43
2019-04-28T10:10:28.095Z,101037.69
2019-04-28T10:12:58.040Z,101034.39
2019-04-28T10:15:26.626Z,101036.64
2019-04-28T10:17:57.396Z,101042.53
2019-04-28T10:20:26.496Z,101041.89
2019-04-28T10:22:55.074Z,101045.30
2019-04-28T10:25:25.371Z,101043.16
2019-04-28T10:27:56.968Z,101045.09
2019-04-28T10:30:25.527Z,101047.02
2019-04-28T10:32:54.468Z,101054.80
2019-04-28T10:35:24.417Z,101059.12
2019-04-28T10:37:53.358Z,101060.03
2019-04-28T10:40:43.270Z,101055.72
2019-04-28T10:43:11.849Z,101053.54
2019-04-28T10:45:47.572Z,101052.33
2019-04-28T10:48:18.152Z,101044.16
2019-04-28T10:50:51.490Z,101050.98
2019-04-28T10:53:22.384Z,101045.42
2019-04-28T10:55:53.268Z,101045.73
2019-04-28T10:58:23.590Z,101044.05
2019-04-28T11:00:59.525Z,101045.10
2019-04-28T11:03:30.627Z,101045.90
2019-04-28T11:05:59.313Z,101049.23
2019-04-28T11:08:40.732Z,101043.92
2019-04-28T11:11:16.743Z,101046.42
2019-04-28T11:13:45.767Z,101044.99
2019-04-28T11:16:17.427Z,101047.63
2019-04-28T11:18:48.072Z,101048.30
2019-04-28T11:21:19.049Z,101051.41
2019-04-28T11:23:49.230Z,101056.03
2019-04-28T11:26:17.783Z,101062.25
2019-04-28T11:28:46.951Z,101058.72
2019-04-28T11:31:16.989Z,101058.13
2019-04-28T11:33:52.385Z,101057.20
2019-04-28T11:36:24.209Z,101064.10
2019-04-28T11:38:53.000Z,101069.48
2019-04-28T11:41:22.085Z,101066.09
2019-04-28T11:43:52.816Z,101063.25
2019-04-28T11:46:22.231Z,101071.92
2019-04-28T11:48:53.861Z,101068.48
2019-04-28T11:51:22.414Z,101067.81
2019-04-28T11:53:51.359Z,101078.80
2019-04-28T11:56:20.251Z,101083.63
2019-04-28T11:58:50.198Z,101085.52
2019-04-28T12:01:19.907Z,101083.02
2019-04-28T12:03:51.560Z,101095.98
2019-04-28T12:06:22.158Z,101100.52
2019-04-28T12:08:53.554Z,101111.41
2019-04-28T12:11:29.858Z,101114.98
2019-04-28T12:14:10.039Z,101111.47
2019-04-28T12:17:14.522Z,101112.15
2019-04-28T12:19:49.000Z,101111.05
2019-04-28T12:22:17.151Z,101110.71
2019-04-28T12:24:47.701Z,101114.48
2019-04-28T12:27:16.664Z,101116.18
2019-04-28T12:29:46.802Z,101119.38
2019-04-28T12:32:15.555Z,101123.79
2019-04-28T12:34:49.052Z,101118.97
2019-04-28T12:37:26.305Z,101129.77
2019-04-28T12:39:55.609Z,101126.05
2019-04-28T12:42:26.490Z,101124.05
2019-04-28T12:44:55.092Z,101125.36
2019-04-28T12:47:23.838Z,101131.52
2019-04-28T12:50:00.316Z,101125.91
2019-04-28T12:52:28.889Z,101117.53
2019-04-28T12:54:57.484Z,101121.41
2019-04-28T12:57:28.256Z,101120.04
2019-04-28T13:00:04.879Z,101125.02
2019-04-28T13:03:03.595Z,101131.61
2019-04-28T13:05:36.993Z,101140.30
2019-04-28T13:08:08.471Z,101130.73
2019-04-28T13:10:37.575Z,101137.06
2019-04-28T13:13:08.277Z,101137.59
2019-04-28T13:15:37.188Z,101128.41
2019-04-28T13:18:08.006Z,101126.83
2019-04-28T13:20:37.984Z,101132.20
2019-04-28T13:23:06.562Z,101128.64
2019-04-28T13:25:37.223Z,101128.52
2019-04-28T13:28:07.113Z,101131.17
2019-04-28T13:30:37.215Z,101128.60
2019-04-28T13:33:07.339Z,101130.41
2019-04-28T13:35:39.817Z,101123.38
2019-04-28T13:38:09.703Z,101131.07
2019-04-28T13:40:39.256Z,101130.56
2019-04-28T13:43:08.190Z,101138.87
2019-04-28T13:45:38.164Z,101133.40
2019-04-28T13:48:07.096Z,101137.12
2019-04-28T13:50:39.429Z,101130.97
2019-04-28T13:53:08.381Z,101136.42
2019-04-28T13:55:57.884Z,101136.24
2019-04-28T13:58:29.815Z,101130.01
2019-04-28T14:01:08.111Z,101130.55
2019-04-28T14:03:56.115Z,101128.37
2019-04-28T14:06:28.474Z,101131.61
2019-04-28T14:09:01.017Z,101132.31
2019-04-28T14:11:29.620Z,101123.43
2019-04-28T14:13:58.612Z,101135.23
2019-04-28T14:16:28.464Z,101134.34
2019-04-28T14:18:57.517Z,101143.98
2019-04-28T14:21:30.910Z,101139.55
2019-04-28T14:23:59.472Z,101137.51
2019-04-28T14:26:29.742Z,101145.70
2019-04-28T14:28:58.306Z,101142.64
2019-04-28T14:31:27.045Z,101144.14
2019-04-28T14:33:55.625Z,101142.90
2019-04-28T14:36:24.804Z,101149.80
2019-04-28T14:38:55.096Z,101144.90
2019-04-28T14:41:26.723Z,101146.50
2019-04-28T14:43:57.060Z,101143.75
2019-04-28T14:46:25.862Z,101138.97
2019-04-28T14:48:55.034Z,101141.84
2019-04-28T14:51:23.631Z,101146.62
2019-04-28T14:53:54.568Z,101147.56
2019-04-28T14:56:23.163Z,101151.92
2019-04-28T14:58:53.414Z,101149.73
2019-04-28T15:01:59.411Z,101156.69
2019-04-28T15:04:50.709Z,101152.72
2019-04-28T15:07:38.949Z,101157.59
2019-04-28T15:10:20.635Z,101150.44
2019-04-28T15:12:50.703Z,101146.32
2019-04-28T15:15:21.136Z,101142.21
2019-04-28T15:17:50.110Z,101144.45
2019-04-28T15:20:19.142Z,101143.30
2019-04-28T15:22:48.052Z,101141.28
2019-04-28T15:25:20.834Z,101147.06
2019-04-28T15:27:50.562Z,101147.28
2019-04-28T15:30:20.831Z,101149.25
2019-04-28T15:32:49.599Z,101147.83
2019-04-28T15:35:18.534Z,101148.73
2019-04-28T15:37:47.498Z,101152.53
2019-04-28T15:40:18.601Z,101152.96
2019-04-28T15:42:47.353Z,101158.56
2019-04-28T15:45:16.073Z,101150.97
2019-04-28T15:47:46.027Z,101155.51
2019-04-28T15:50:14.588Z,101157.87
2019-04-28T15:52:43.168Z,101156.99
2019-04-28T15:55:14.307Z,101149.13
2019-04-28T15:57:44.542Z,101149.16
2019-04-28T16:00:14.355Z,101155.35
2019-04-28T16:02:44.202Z,101152.37
2019-04-28T16:05:14.715Z,101150.35
2019-04-28T16:07:43.728Z,101154.00
2019-04-28T16:10:12.617Z,101147.03
2019-04-28T16:12:41.531Z,101149.30
2019-04-28T16:15:10.824Z,101147.53
2019-04-28T16:17:43.267Z,101147.00
2019-04-28T16:20:13.927Z,101150.92
2019-04-28T16:22:43.897Z,101152.33
2019-04-28T16:25:12.449Z,101152.75
2019-04-28T16:27:41.038Z,101149.38
2019-04-28T16:30:10.018Z,101142.88
2019-04-28T16:32:39.009Z,101153.69
2019-04-28T16:35:08.012Z,101149.25
2019-04-28T16:37:39.966Z,101160.47
2019-04-28T16:40:09.942Z,101160.23
2019-04-28T16:42:40.558Z,101151.59
2019-04-28T16:45:12.280Z,101153.97
2019-04-28T16:47:44.101Z,101158.66
2019-04-28T16:50:12.677Z,101153.67
2019-04-28T16:52:41.275Z,101164.81
2019-04-28T16:55:14.884Z,101166.21
2019-04-28T16:58:14.606Z,101164.14
2019-04-28T17:01:01.990Z,101163.35
2019-04-28T17:03:32.312Z,101168.91
2019-04-28T17:06:04.108Z,101176.58
2019-04-28T17:08:35.114Z,101177.99
2019-04-28T17:11:05.808Z,101178.98
2019-04-28T17:13:35.846Z,101185.33
2019-04-28T17:16:04.449Z,101184.03
2019-04-28T17:18:33.027Z,101180.59
2019-04-28T17:21:03.604Z,101181.09
2019-04-28T17:23:32.529Z,101181.08
2019-04-28T17:26:01.515Z,101181.05
2019-04-28T17:28:30.485Z,101174.83
2019-04-28T17:31:02.662Z,101176.48
2019-04-28T17:33:31.573Z,101185.42
2019-04-28T17:36:00.145Z,101184.42
2019-04-28T17:38:28.712Z,101190.80
2019-04-28T17:40:59.811Z,101189.40
2019-04-28T17:43:28.849Z,101191.20
2019-04-28T17:45:58.272Z,101194.08
2019-04-28T17:48:32.047Z,101201.14
2019-04-28T17:51:00.607Z,101204.31
2019-04-28T17:53:29.595Z,101205.57
2019-04-28T17:55:58.344Z,101215.05
2019-04-28T17:58:27.112Z,101212.34
2019-04-28T18:01:15.225Z,101219.28
2019-04-28T18:04:07.183Z,101216.95
2019-04-28T18:06:37.417Z,101222.88
2019-04-28T18:09:06.704Z,101221.75
2019-04-28T18:11:37.469Z,101220.27
2019-04-28T18:14:08.230Z,101219.87
2019-04-28T18:16:51.590Z,101225.84
2019-04-28T18:19:22.129Z,101227.61
2019-04-28T18:21:51.042Z,101233.28
2019-04-28T18:24:21.896Z,101246.17
2019-04-28T18:26:54.034Z,101244.91
2019-04-28T18:29:22.611Z,101249.44
2019-04-28T18:32:08.778Z,101259.51
2019-04-28T18:34:46.532Z,101260.82
2019-04-28T18:37:34.565Z,101268.28
2019-04-28T18:40:25.968Z,101277.86
2019-04-28T18:43:10.353Z,101275.80
2019-04-28T18:45:39.094Z,101288.67
2019-04-28T18:48:09.147Z,101288.60
2019-04-28T18:50:42.294Z,101287.34
2019-04-28T18:53:12.556Z,101296.55
2019-04-28T18:55:44.572Z,101297.22
2019-04-28T18:58:13.740Z,101300.12
2019-04-28T19:00:47.514Z,101306.24
2019-04-28T19:03:15.539Z,101310.55
2019-04-28T19:05:47.702Z,101319.92
2019-04-28T19:08:32.844Z,101328.34
2019-04-28T19:11:20.343Z,101333.24
2019-04-28T19:13:55.891Z,101333.84
2019-04-28T19:16:45.621Z,101336.26
2019-04-28T19:19:18.373Z,101332.04
2019-04-28T19:21:59.082Z,101336.08
2019-04-28T19:24:28.056Z,101337.64
2019-04-28T19:26:56.815Z,101337.25
2019-04-28T19:29:25.758Z,101342.27
2019-04-28T19:31:54.507Z,101344.20
2019-04-28T19:34:23.314Z,101354.93
2019-04-28T19:36:51.895Z,101350.23
2019-04-28T19:39:21.850Z,101355.30
2019-04-28T19:41:50.415Z,101360.42
2019-04-28T19:44:19.215Z,101369.97
2019-04-28T19:46:48.192Z,101369.72
2019-04-28T19:49:23.968Z,101367.02
2019-04-28T19:51:59.542Z,101362.84
2019-04-28T19:54:32.787Z,101374.34
2019-04-28T19:57:09.738Z,101376.14
2019-04-28T19:59:56.132Z,101381.91
2019-04-28T20:02:30.882Z,101377.62
2019-04-28T20:05:03.164Z,101379.37
2019-04-28T20:07:34.462Z,101378.59
2019-04-28T20:10:03.682Z,101383.81
2019-04-28T20:12:34.260Z,101392.15
2019-04-28T20:15:03.630Z,101393.49
2019-04-28T20:17:32.538Z,101394.88
2019-04-28T20:20:22.038Z,101395.16
2019-04-28T20:22:51.216Z,101401.80
2019-04-28T20:25:20.005Z,101402.69
2019-04-28T20:27:49.005Z,101402.78
2019-04-28T20:30:17.618Z,101394.91
2019-04-28T20:32:48.481Z,101394.23
2019-04-28T20:35:21.350Z,101400.44
2019-04-28T20:37:59.977Z,101401.36
2019-04-28T20:40:34.937Z,101406.30
2019-04-28T20:43:17.687Z,101405.10
2019-04-28T20:45:46.458Z,101398.69
2019-04-28T20:48:15.167Z,101396.97
2019-04-28T20:50:43.776Z,101397.05
2019-04-28T20:53:12.352Z,101402.84
2019-04-28T20:55:42.747Z,101409.05
2019-04-28T20:58:12.791Z,101409.57
2019-04-28T21:00:41.393Z,101419.23
2019-04-28T21:03:10.069Z,101415.31
2019-04-28T21:05:39.056Z,101412.70
2019-04-28T21:08:07.604Z,101421.00
2019-04-28T21:10:39.562Z,101421.88
2019-04-28T21:13:11.538Z,101421.47
2019-04-28T21:15:40.127Z,101425.42
2019-04-28T21:18:12.164Z,101423.22
2019-04-28T21:20:40.922Z,101423.33
2019-04-28T21:23:11.916Z,101420.76
2019-04-28T21:25:42.185Z,101425.68
2019-04-28T21:28:10.740Z,101430.58
2019-04-28T21:30:39.744Z,101430.98
2019-04-28T21:33:09.862Z,101434.04
2019-04-28T21:35:42.695Z,101440.31
2019-04-28T21:38:11.285Z,101446.88
2019-04-28T21:40:41.433Z,101438.27
2019-04-28T21:43:26.850Z,101446.17
2019-04-28T21:46:25.315Z,101445.76
2019-04-28T21:48:58.931Z,101443.24
2019-04-28T21:51:26.744Z,101440.67
2019-04-28T21:53:55.659Z,101443.28
2019-04-28T21:56:24.417Z,101445.00
2019-04-28T21:58:53.185Z,101443.28
2019-04-28T22:01:22.293Z,101444.20
2019-04-28T22:03:50.898Z,101447.31
2019-04-28T22:06:19.832Z,101452.19
2019-04-28T22:08:48.401Z,101455.76
2019-04-28T22:11:18.919Z,101455.78
2019-04-28T22:13:52.477Z,101462.78
2019-04-28T22:16:21.045Z,101463.28
2019-04-28T22:18:49.594Z,101461.19
2019-04-28T22:21:20.089Z,101461.98
2019-04-28T22:24:01.341Z,101470.69
2019-04-28T22:26:46.496Z,101472.03
2019-04-28T22:29:18.242Z,101471.30
2019-04-28T22:31:49.110Z,101473.05
2019-04-28T22:34:17.851Z,101473.45
2019-04-28T22:36:48.531Z,101469.95
2019-04-28T22:39:17.762Z,101468.20
2019-04-28T22:41:46.573Z,101471.30
2019-04-28T22:44:18.541Z,101469.66
2019-04-28T22:46:52.095Z,101469.23
2019-04-28T22:49:21.138Z,101476.27
2019-04-28T22:51:51.453Z,101474.48
2019-04-28T22:54:42.084Z,101471.52
2019-04-28T22:57:35.896Z,101476.39
2019-04-28T23:00:08.341Z,101480.38
2019-04-28T23:02:38.220Z,101489.52
2019-04-28T23:05:08.596Z,101489.59
2019-04-28T23:07:37.954Z,101490.43
2019-04-28T23:10:08.865Z,101489.56
2019-04-28T23:12:38.813Z,101491.30
2019-04-28T23:15:09.382Z,101497.40
2019-04-28T23:17:38.345Z,101495.70
2019-04-28T23:20:11.213Z,101499.27
2019-04-28T23:22:47.022Z,101499.23
2019-04-28T23:25:17.733Z,101499.20
2019-04-28T23:27:46.710Z,101499.20
2019-04-28T23:30:35.295Z,101502.72
2019-04-28T23:33:04.632Z,101495.44
2019-04-28T23:35:35.197Z,101500.66
2019-04-28T23:38:04.167Z,101514.67
2019-04-28T23:40:39.117Z,101508.19
2019-04-28T23:43:15.778Z,101509.05
2019-04-28T23:45:46.030Z,101513.00
2019-04-28T23:48:15.083Z,101511.28
2019-04-28T23:51:08.294Z,101505.61
2019-04-28T23:53:58.870Z,101500.34
2019-04-28T23:56:27.451Z,101508.25
2019-04-28T23:58:56.011Z,101509.59
